createdAt,value
2018-04-14T00:00:12.392Z,19.48
2018-04-14T00:01:15.638Z,12.50
2018-04-14T00:02:18.148Z,17.12
2018-04-14T00:03:20.640Z,15.88
2018-04-14T00:04:23.143Z,16.05
2018-04-14T00:05:25.675Z,15.63
2018-04-14T00:06:28.249Z,25.02
2018-04-14T00:07:30.775Z,19.02
2018-04-14T00:08:33.279Z,17.20
2018-04-14T00:09:35.742Z,15.98
2018-04-14T00:10:38.997Z,21.08
2018-04-14T00:11:42.257Z,15.05
2018-04-14T00:12:44.759Z,19.12
2018-04-14T00:13:47.987Z,15.48
2018-04-14T00:14:50.461Z,17.30
2018-04-14T00:15:52.928Z,22.95
2018-04-14T00:16:55.399Z,19.10
2018-04-14T00:17:57.905Z,17.90
2018-04-14T00:19:01.567Z,17.40
2018-04-14T00:20:04.822Z,17.30
2018-04-14T00:21:07.301Z,15.73
2018-04-14T00:22:09.810Z,17.05
2018-04-14T00:23:12.290Z,15.60
2018-04-14T00:24:14.821Z,19.35
2018-04-14T00:25:17.315Z,17.58
2018-04-14T00:26:20.272Z,21.20
2018-04-14T00:27:23.517Z,20.48
2018-04-14T00:28:26.802Z,21.12
2018-04-14T00:29:29.298Z,23.87
2018-04-14T00:30:31.862Z,18.23
2018-04-14T00:31:34.345Z,17.23
2018-04-14T00:32:36.830Z,19.95
2018-04-14T00:33:39.305Z,24.33
2018-04-14T00:34:41.797Z,21.90
2018-04-14T00:35:45.044Z,19.77
2018-04-14T00:36:48.285Z,17.92
2018-04-14T00:37:51.518Z,22.65
2018-04-14T00:38:54.009Z,25.40
2018-04-14T00:39:56.582Z,19.50
2018-04-14T00:40:59.816Z,21.45
2018-04-14T00:42:03.081Z,19.15
2018-04-14T00:43:05.548Z,22.42
2018-04-14T00:44:08.002Z,17.10
2018-04-14T00:45:10.546Z,22.80
2018-04-14T00:46:13.811Z,24.05
2018-04-14T00:47:16.304Z,20.12
2018-04-14T00:48:19.562Z,21.12
2018-04-14T00:49:22.825Z,25.35
2018-04-14T00:50:25.292Z,24.00
2018-04-14T00:51:27.771Z,22.30
2018-04-14T00:52:30.249Z,22.90
2018-04-14T00:53:44.671Z,20.88
2018-04-14T00:54:47.897Z,22.50
2018-04-14T00:55:51.162Z,24.45
2018-04-14T00:56:54.405Z,21.17
2018-04-14T00:57:56.891Z,19.42
2018-04-14T00:58:59.388Z,18.83
2018-04-14T01:00:01.865Z,22.02
2018-04-14T01:01:05.157Z,17.70
2018-04-14T01:02:07.662Z,25.60
2018-04-14T01:03:10.154Z,21.58
2018-04-14T01:04:13.417Z,15.70
2018-04-14T01:05:16.679Z,19.37
2018-04-14T01:06:19.160Z,21.52
2018-04-14T01:07:22.401Z,21.10
2018-04-14T01:08:24.871Z,19.00
2018-04-14T01:09:27.372Z,21.58
2018-04-14T01:10:30.663Z,37.28
2018-04-14T01:11:33.150Z,66.68
2018-04-14T01:12:35.650Z,22.37
2018-04-14T01:13:38.908Z,22.77
2018-04-14T01:14:41.393Z,23.50
2018-04-14T01:15:43.992Z,22.40
2018-04-14T01:16:46.489Z,23.50
2018-04-14T01:17:49.766Z,28.23
2018-04-14T01:18:52.241Z,153.25
2018-04-14T01:19:55.481Z,24.83
2018-04-14T01:20:58.721Z,35.58
2018-04-14T01:22:01.189Z,26.30
2018-04-14T01:23:03.681Z,23.05
2018-04-14T01:24:06.954Z,27.30
2018-04-14T01:25:09.433Z,27.15
2018-04-14T01:26:11.904Z,30.52
2018-04-14T01:27:14.364Z,21.80
2018-04-14T01:28:16.851Z,21.90
2018-04-14T01:29:19.352Z,24.30
2018-04-14T01:30:22.580Z,27.42
2018-04-14T01:31:25.814Z,28.42
2018-04-14T01:32:28.337Z,29.17
2018-04-14T01:33:30.774Z,38.10
2018-04-14T01:34:34.014Z,65.35
2018-04-14T01:35:37.274Z,27.73
2018-04-14T01:36:40.509Z,26.52
2018-04-14T01:37:43.740Z,35.33
2018-04-14T01:38:46.236Z,31.23
2018-04-14T01:39:48.733Z,31.70
2018-04-14T01:40:51.229Z,29.35
2018-04-14T01:41:54.486Z,28.95
2018-04-14T01:42:56.968Z,36.38
2018-04-14T01:43:59.453Z,39.88
2018-04-14T01:45:02.703Z,49.00
2018-04-14T01:46:05.204Z,36.95
2018-04-14T01:47:07.708Z,40.78
2018-04-14T01:48:10.175Z,27.08
2018-04-14T01:49:12.654Z,42.90
2018-04-14T01:50:15.208Z,31.15
2018-04-14T01:51:17.713Z,31.35
2018-04-14T01:52:20.987Z,31.40
2018-04-14T01:53:23.521Z,31.77
2018-04-14T01:54:25.999Z,25.12
2018-04-14T01:55:28.480Z,29.25
2018-04-14T01:56:30.962Z,39.50
2018-04-14T01:57:33.464Z,29.92
2018-04-14T01:58:36.034Z,26.58
2018-04-14T01:59:38.497Z,30.42
2018-04-14T02:00:42.577Z,27.90
2018-04-14T02:01:45.142Z,30.95
2018-04-14T02:02:47.639Z,28.98
2018-04-14T02:03:50.885Z,27.00
2018-04-14T02:04:54.129Z,34.58
2018-04-14T02:05:57.400Z,26.60
2018-04-14T02:06:59.884Z,33.08
2018-04-14T02:08:02.459Z,31.80
2018-04-14T02:09:04.972Z,27.42
2018-04-14T02:10:07.460Z,27.90
2018-04-14T02:11:09.957Z,27.45
2018-04-14T02:12:12.461Z,29.67
2018-04-14T02:13:15.021Z,31.40
2018-04-14T02:14:17.478Z,33.80
2018-04-14T02:15:20.828Z,30.65
2018-04-14T02:16:24.486Z,28.92
2018-04-14T02:17:27.737Z,31.60
2018-04-14T02:18:30.260Z,43.58
2018-04-14T02:19:32.743Z,28.48
2018-04-14T02:20:35.314Z,30.95
2018-04-14T02:21:38.567Z,27.95
2018-04-14T02:22:41.045Z,41.22
2018-04-14T02:23:43.533Z,28.95
2018-04-14T02:24:46.017Z,28.40
2018-04-14T02:25:49.267Z,30.90
2018-04-14T02:26:51.749Z,29.48
2018-04-14T02:27:54.230Z,27.92
2018-04-14T02:28:56.781Z,35.03
2018-04-14T02:29:59.496Z,30.83
2018-04-14T02:31:01.968Z,30.20
2018-04-14T02:32:04.441Z,34.85
2018-04-14T02:33:06.901Z,34.92
2018-04-14T02:34:09.485Z,31.70
2018-04-14T02:35:11.959Z,33.22
2018-04-14T02:36:14.444Z,32.13
2018-04-14T02:37:16.927Z,39.65
2018-04-14T02:38:19.489Z,40.30
2018-04-14T02:39:22.051Z,31.83
2018-04-14T02:40:24.508Z,38.97
2018-04-14T02:41:27.736Z,33.65
2018-04-14T02:42:30.200Z,32.10
2018-04-14T02:43:32.683Z,39.80
2018-04-14T02:44:35.179Z,32.95
2018-04-14T02:45:37.639Z,33.08
2018-04-14T02:46:40.099Z,30.12
2018-04-14T02:47:42.594Z,35.45
2018-04-14T02:48:45.839Z,33.30
2018-04-14T02:49:48.314Z,33.22
2018-04-14T02:50:50.787Z,36.30
2018-04-14T02:51:53.337Z,36.00
2018-04-14T02:52:56.613Z,34.17
2018-04-14T02:53:59.130Z,34.17
2018-04-14T02:55:01.615Z,37.45
2018-04-14T02:56:04.901Z,32.17
2018-04-14T02:57:07.408Z,36.17
2018-04-14T02:58:09.894Z,33.70
2018-04-14T02:59:12.412Z,35.10
2018-04-14T03:00:14.985Z,35.13
2018-04-14T03:01:17.472Z,35.10
2018-04-14T03:02:19.969Z,34.00
2018-04-14T03:03:22.482Z,35.75
2018-04-14T03:04:25.101Z,37.00
2018-04-14T03:05:27.574Z,39.22
2018-04-14T03:06:30.815Z,40.95
2018-04-14T03:07:34.097Z,35.13
2018-04-14T03:08:36.619Z,42.60
2018-04-14T03:09:39.113Z,37.67
2018-04-14T03:10:41.619Z,42.70
2018-04-14T03:11:44.091Z,58.67
2018-04-14T03:12:46.553Z,46.50
2018-04-14T03:13:49.036Z,41.63
2018-04-14T03:14:52.318Z,37.40
2018-04-14T03:15:54.817Z,42.62
2018-04-14T03:16:57.294Z,41.72
2018-04-14T03:17:59.765Z,41.75
2018-04-14T03:19:02.242Z,44.13
2018-04-14T03:20:04.727Z,52.92
2018-04-14T03:21:07.188Z,45.85
2018-04-14T03:22:09.658Z,53.63
2018-04-14T03:23:12.179Z,49.63
2018-04-14T03:24:15.413Z,50.40
2018-04-14T03:25:18.644Z,54.25
2018-04-14T03:26:21.898Z,50.55
2018-04-14T03:27:25.154Z,49.17
2018-04-14T03:28:27.886Z,65.62
2018-04-14T03:29:31.140Z,76.53
2018-04-14T03:30:33.640Z,47.78
2018-04-14T03:31:36.900Z,96.53
2018-04-14T03:32:39.434Z,57.38
2018-04-14T03:33:41.953Z,60.22
2018-04-14T03:34:44.488Z,91.25
2018-04-14T03:35:46.979Z,67.78
2018-04-14T03:36:50.258Z,54.03
2018-04-14T03:37:53.389Z,49.03
2018-04-14T03:38:55.876Z,51.03
2018-04-14T03:39:58.391Z,52.17
2018-04-14T03:41:00.874Z,53.67
2018-04-14T03:42:03.374Z,49.25
2018-04-14T03:43:06.629Z,70.62
2018-04-14T03:44:09.116Z,56.88
2018-04-14T03:45:11.613Z,56.65
2018-04-14T03:46:14.209Z,52.05
2018-04-14T03:47:16.712Z,66.68
2018-04-14T03:48:19.949Z,65.55
2018-04-14T03:49:22.461Z,61.83
2018-04-14T03:50:24.926Z,63.22
2018-04-14T03:51:27.437Z,55.30
2018-04-14T03:52:30.671Z,54.28
2018-04-14T03:53:33.914Z,55.15
2018-04-14T03:54:37.177Z,53.47
2018-04-14T03:55:39.653Z,47.30
2018-04-14T03:56:42.135Z,50.50
2018-04-14T03:57:44.613Z,42.62
2018-04-14T03:58:47.080Z,43.67
2018-04-14T03:59:49.595Z,46.25
2018-04-14T04:00:52.075Z,45.60
2018-04-14T04:01:54.561Z,40.75
2018-04-14T04:02:57.076Z,42.55
2018-04-14T04:03:59.966Z,44.80
2018-04-14T04:05:02.466Z,53.78
2018-04-14T04:06:04.972Z,43.53
2018-04-14T04:07:07.485Z,46.37
2018-04-14T04:08:09.984Z,42.65
2018-04-14T04:09:12.592Z,43.55
2018-04-14T04:10:15.062Z,45.08
2018-04-14T04:11:17.745Z,45.65
2018-04-14T04:12:20.232Z,47.00
2018-04-14T04:13:22.704Z,49.10
2018-04-14T04:14:25.161Z,54.75
2018-04-14T04:15:27.647Z,51.72
2018-04-14T04:16:30.125Z,54.33
2018-04-14T04:17:32.625Z,51.42
2018-04-14T04:18:47.695Z,52.95
2018-04-14T04:20:02.095Z,49.55
2018-04-14T04:22:53.117Z,51.55
2018-04-14T04:24:07.543Z,56.47
2018-04-14T04:25:37.441Z,51.65
2018-04-14T04:26:39.907Z,51.75
2018-04-14T04:27:43.145Z,48.65
2018-04-14T04:28:45.708Z,46.50
2018-04-14T04:29:48.211Z,42.88
2018-04-14T04:30:50.679Z,43.47
2018-04-14T04:31:53.369Z,51.80
2018-04-14T04:32:55.861Z,40.42
2018-04-14T04:33:58.324Z,50.15
2018-04-14T04:35:00.791Z,39.03
2018-04-14T04:36:03.276Z,45.85
2018-04-14T04:37:05.756Z,41.95
2018-04-14T04:38:08.264Z,40.33
2018-04-14T04:39:10.748Z,40.75
2018-04-14T04:40:13.216Z,48.95
2018-04-14T04:41:15.677Z,43.05
2018-04-14T04:42:19.655Z,43.92
2018-04-14T04:43:22.120Z,46.60
2018-04-14T04:44:24.587Z,43.25
2018-04-14T04:45:27.819Z,45.55
2018-04-14T04:46:31.098Z,44.88
2018-04-14T04:47:33.575Z,51.70
2018-04-14T04:48:36.048Z,51.75
2018-04-14T04:49:38.558Z,55.25
2018-04-14T04:50:41.788Z,57.03
2018-04-14T04:51:45.077Z,55.90
2018-04-14T04:52:47.578Z,56.55
2018-04-14T04:53:50.066Z,61.33
2018-04-14T04:54:53.311Z,70.80
2018-04-14T04:55:56.487Z,69.32
2018-04-14T04:56:58.958Z,63.35
2018-04-14T04:58:01.414Z,79.15
2018-04-14T04:59:04.677Z,80.43
2018-04-14T05:00:07.154Z,87.72
2018-04-14T05:01:09.621Z,81.07
2018-04-14T05:02:12.493Z,83.87
2018-04-14T05:03:14.983Z,88.45
2018-04-14T05:04:17.521Z,94.93
2018-04-14T05:05:19.997Z,91.90
2018-04-14T05:06:23.247Z,102.57
2018-04-14T05:07:25.723Z,99.25
2018-04-14T05:08:28.242Z,108.82
2018-04-14T05:09:30.730Z,113.25
2018-04-14T05:10:34.006Z,108.87
2018-04-14T05:11:36.478Z,115.10
2018-04-14T05:12:38.948Z,108.37
2018-04-14T05:13:41.446Z,110.53
2018-04-14T05:14:43.925Z,113.37
2018-04-14T05:15:46.400Z,114.68
2018-04-14T05:16:49.639Z,117.72
2018-04-14T05:17:53.050Z,121.90
2018-04-14T05:18:55.564Z,121.60
2018-04-14T05:19:58.012Z,122.30
2018-04-14T05:21:00.485Z,118.60
2018-04-14T05:22:02.992Z,117.00
2018-04-14T05:23:06.228Z,130.20
2018-04-14T05:24:09.546Z,116.35
2018-04-14T05:25:12.033Z,120.07
2018-04-14T05:26:14.538Z,117.13
2018-04-14T05:27:17.808Z,125.25
2018-04-14T05:28:20.291Z,111.68
2018-04-14T05:29:23.558Z,115.03
2018-04-14T05:30:26.803Z,106.82
2018-04-14T05:31:30.573Z,116.12
2018-04-14T05:32:33.088Z,107.80
2018-04-14T05:33:35.565Z,112.85
2018-04-14T05:34:38.158Z,106.95
2018-04-14T05:35:40.670Z,114.05
2018-04-14T05:36:43.154Z,121.43
2018-04-14T05:37:45.709Z,133.52
2018-04-14T05:38:48.984Z,118.90
2018-04-14T05:39:51.541Z,112.40
2018-04-14T05:40:54.081Z,111.18
2018-04-14T05:41:56.616Z,106.30
2018-04-14T05:42:59.891Z,99.30
2018-04-14T05:44:02.351Z,99.72
2018-04-14T05:45:04.922Z,102.55
2018-04-14T05:46:08.204Z,103.78
2018-04-14T05:47:10.927Z,104.72
2018-04-14T05:48:13.412Z,99.78
2018-04-14T05:49:16.643Z,105.22
2018-04-14T05:50:20.004Z,102.43
2018-04-14T05:51:22.497Z,106.15
2018-04-14T05:52:24.968Z,94.65
2018-04-14T05:53:27.530Z,95.47
2018-04-14T05:54:30.013Z,95.93
2018-04-14T05:55:32.514Z,96.00
2018-04-14T05:56:35.775Z,98.22
2018-04-14T05:57:39.016Z,87.15
2018-04-14T05:58:41.480Z,93.62
2018-04-14T05:59:44.028Z,96.55
2018-04-14T06:00:46.498Z,90.82
2018-04-14T06:01:49.001Z,89.05
2018-04-14T06:02:51.479Z,103.12
2018-04-14T06:03:54.079Z,88.62
2018-04-14T06:04:56.570Z,85.85
2018-04-14T06:05:59.065Z,88.15
2018-04-14T06:07:02.354Z,86.47
2018-04-14T06:08:05.612Z,88.60
2018-04-14T06:09:08.192Z,82.57
2018-04-14T06:10:10.664Z,93.87
2018-04-14T06:11:13.197Z,83.40
2018-04-14T06:12:15.665Z,95.45
2018-04-14T06:13:19.017Z,88.65
2018-04-14T06:14:23.021Z,91.20
2018-04-14T06:15:25.503Z,89.95
2018-04-14T06:16:27.978Z,89.95
2018-04-14T06:17:30.517Z,100.68
2018-04-14T06:18:33.000Z,89.45
2018-04-14T06:19:36.357Z,90.70
2018-04-14T06:20:39.590Z,92.78
2018-04-14T06:21:42.849Z,86.93
2018-04-14T06:22:45.337Z,98.32
2018-04-14T06:23:47.902Z,84.28
2018-04-14T06:24:50.408Z,85.05
2018-04-14T06:25:53.650Z,86.40
2018-04-14T06:26:56.916Z,87.70
2018-04-14T06:27:59.387Z,93.10
2018-04-14T06:29:01.848Z,90.28
2018-04-14T06:30:05.099Z,84.40
2018-04-14T06:31:08.335Z,85.07
2018-04-14T06:32:11.571Z,82.03
2018-04-14T06:33:14.862Z,90.90
2018-04-14T06:34:17.324Z,88.45
2018-04-14T06:35:19.807Z,89.93
2018-04-14T06:36:22.270Z,87.78
2018-04-14T06:37:24.762Z,81.28
2018-04-14T06:38:27.273Z,76.75
2018-04-14T06:39:29.763Z,79.70
2018-04-14T06:40:33.001Z,75.93
2018-04-14T06:41:36.239Z,78.70
2018-04-14T06:42:38.807Z,80.22
2018-04-14T06:43:41.331Z,75.62
2018-04-14T06:44:43.807Z,79.35
2018-04-14T06:45:46.380Z,74.18
2018-04-14T06:46:48.849Z,76.57
2018-04-14T06:47:51.435Z,79.50
2018-04-14T06:48:53.947Z,86.60
2018-04-14T06:49:56.409Z,81.37
2018-04-14T06:50:59.378Z,85.18
2018-04-14T06:52:02.623Z,101.30
2018-04-14T06:53:05.881Z,80.85
2018-04-14T06:54:09.149Z,80.78
2018-04-14T06:55:12.307Z,86.03
2018-04-14T06:56:14.816Z,81.12
2018-04-14T06:57:17.301Z,83.00
2018-04-14T06:58:19.768Z,81.47
2018-04-14T06:59:22.257Z,107.37
2018-04-14T07:00:25.499Z,113.45
2018-04-14T07:01:28.809Z,88.12
2018-04-14T07:02:31.303Z,81.95
2018-04-14T07:03:33.781Z,90.20
2018-04-14T07:04:36.270Z,92.37
2018-04-14T07:05:38.730Z,94.82
2018-04-14T07:06:41.328Z,100.00
2018-04-14T07:07:43.891Z,93.00
2018-04-14T07:08:47.135Z,93.78
2018-04-14T07:09:50.387Z,99.90
2018-04-14T07:10:53.672Z,97.30
2018-04-14T07:11:56.184Z,104.25
2018-04-14T07:12:58.693Z,103.80
2018-04-14T07:14:01.184Z,100.47
2018-04-14T07:15:03.689Z,97.70
2018-04-14T07:16:06.167Z,112.55
2018-04-14T07:17:08.664Z,122.25
2018-04-14T07:18:11.148Z,114.00
2018-04-14T07:19:13.660Z,116.00
2018-04-14T07:20:16.195Z,111.18
2018-04-14T07:21:18.694Z,122.80
2018-04-14T07:22:21.228Z,127.03
2018-04-14T07:23:23.795Z,117.57
2018-04-14T07:24:26.289Z,115.75
2018-04-14T07:25:28.802Z,112.60
2018-04-14T07:26:31.289Z,113.18
2018-04-14T07:27:33.861Z,107.50
2018-04-14T07:28:36.333Z,112.32
2018-04-14T07:29:38.803Z,121.47
2018-04-14T07:30:41.331Z,118.20
2018-04-14T07:31:43.826Z,123.78
2018-04-14T07:32:47.045Z,125.30
2018-04-14T07:33:49.549Z,133.77
2018-04-14T07:34:52.066Z,125.18
2018-04-14T07:35:54.602Z,125.47
2018-04-14T07:36:57.089Z,128.73
2018-04-14T07:38:00.329Z,125.78
2018-04-14T07:39:03.580Z,139.35
2018-04-14T07:40:06.867Z,130.05
2018-04-14T07:41:09.351Z,126.30
2018-04-14T07:42:11.878Z,146.50
2018-04-14T07:43:14.349Z,133.05
2018-04-14T07:44:16.883Z,145.30
2018-04-14T07:45:19.426Z,124.40
2018-04-14T07:46:21.988Z,135.30
2018-04-14T07:47:24.461Z,127.38
2018-04-14T07:48:27.005Z,127.03
2018-04-14T07:49:30.254Z,135.73
2018-04-14T07:50:33.504Z,125.70
2018-04-14T07:51:36.760Z,115.85
2018-04-14T07:52:40.105Z,131.15
2018-04-14T07:53:42.631Z,118.45
2018-04-14T07:54:45.114Z,123.75
2018-04-14T07:55:47.688Z,123.80
2018-04-14T07:56:51.047Z,115.40
2018-04-14T07:57:53.526Z,118.15
2018-04-14T07:58:56.041Z,118.03
2018-04-14T07:59:58.547Z,110.72
2018-04-14T08:01:01.069Z,119.28
2018-04-14T08:02:03.542Z,114.45
2018-04-14T08:03:06.913Z,114.25
2018-04-14T08:04:09.386Z,124.40
2018-04-14T08:05:11.861Z,116.35
2018-04-14T08:06:14.367Z,105.85
2018-04-14T08:07:17.605Z,100.78
2018-04-14T08:08:20.862Z,104.38
2018-04-14T08:09:23.339Z,107.35
2018-04-14T08:10:25.813Z,102.70
2018-04-14T08:11:28.333Z,104.53
2018-04-14T08:12:30.832Z,112.03
2018-04-14T08:13:33.295Z,113.05
2018-04-14T08:14:35.810Z,105.70
2018-04-14T08:15:38.297Z,111.00
2018-04-14T08:16:40.785Z,106.70
2018-04-14T08:17:43.275Z,111.53
2018-04-14T08:18:46.632Z,111.65
2018-04-14T08:19:49.438Z,128.75
2018-04-14T08:20:52.701Z,111.70
2018-04-14T08:21:55.965Z,121.37
2018-04-14T08:22:58.492Z,127.53
2018-04-14T08:24:01.014Z,108.37
2018-04-14T08:25:03.538Z,129.85
2018-04-14T08:26:06.023Z,110.53
2018-04-14T08:27:08.500Z,130.40
2018-04-14T08:28:10.982Z,114.47
2018-04-14T08:29:14.254Z,113.88
2018-04-14T08:30:16.750Z,103.10
2018-04-14T08:31:20.182Z,100.32
2018-04-14T08:32:22.649Z,101.78
2018-04-14T08:33:25.148Z,126.50
2018-04-14T08:34:28.445Z,101.65
2018-04-14T08:35:30.900Z,104.25
2018-04-14T08:36:33.436Z,110.78
2018-04-14T08:37:35.913Z,106.45
2018-04-14T08:38:38.396Z,96.12
2018-04-14T08:39:41.683Z,98.43
2018-04-14T08:40:44.241Z,105.05
2018-04-14T08:41:46.736Z,95.82
2018-04-14T08:42:49.234Z,119.10
2018-04-14T08:43:51.716Z,91.57
2018-04-14T08:44:54.234Z,415.40
2018-04-14T08:45:56.756Z,161.45
2018-04-14T08:46:59.302Z,120.95
2018-04-14T08:48:01.813Z,107.50
2018-04-14T08:49:04.311Z,154.68
2018-04-14T08:50:06.821Z,118.22
2018-04-14T08:51:09.342Z,102.35
2018-04-14T08:52:11.873Z,87.12
2018-04-14T08:53:14.355Z,86.72
2018-04-14T08:54:16.878Z,85.95
2018-04-14T08:55:20.140Z,87.35
2018-04-14T08:56:23.540Z,78.95
2018-04-14T08:57:26.005Z,75.87
2018-04-14T08:58:29.719Z,81.28
2018-04-14T08:59:32.175Z,74.40
2018-04-14T09:00:35.415Z,81.05
2018-04-14T09:01:37.929Z,79.97
2018-04-14T09:02:40.467Z,75.25
2018-04-14T09:03:43.742Z,76.28
2018-04-14T09:04:46.730Z,81.28
2018-04-14T09:05:49.207Z,74.03
2018-04-14T09:06:51.681Z,77.82
2018-04-14T09:07:54.189Z,78.20
2018-04-14T09:08:56.724Z,74.30
2018-04-14T09:09:59.221Z,75.85
2018-04-14T09:11:01.711Z,75.78
2018-04-14T09:12:05.000Z,74.50
2018-04-14T09:13:07.638Z,75.37
2018-04-14T09:14:10.225Z,71.55
2018-04-14T09:15:14.520Z,65.90
2018-04-14T09:16:17.008Z,69.80
2018-04-14T09:17:20.263Z,72.37
2018-04-14T09:18:22.754Z,62.10
2018-04-14T09:19:26.016Z,76.80
2018-04-14T09:20:29.251Z,66.20
2018-04-14T09:21:32.516Z,67.07
2018-04-14T09:22:34.998Z,65.03
2018-04-14T09:23:37.478Z,60.47
2018-04-14T09:24:39.988Z,60.22
2018-04-14T09:25:42.474Z,59.95
2018-04-14T09:26:45.060Z,64.25
2018-04-14T09:27:47.566Z,62.28
2018-04-14T09:28:50.068Z,59.90
2018-04-14T09:29:53.346Z,60.30
2018-04-14T09:30:55.861Z,55.30
2018-04-14T09:31:58.347Z,59.58
2018-04-14T09:33:01.671Z,55.67
2018-04-14T09:34:04.978Z,56.03
2018-04-14T09:35:07.502Z,58.42
2018-04-14T09:36:09.973Z,62.58
2018-04-14T09:37:12.615Z,62.97
2018-04-14T09:38:15.152Z,56.35
2018-04-14T09:39:18.393Z,58.15
2018-04-14T09:40:21.656Z,58.33
2018-04-14T09:42:26.895Z,55.30
2018-04-14T09:43:29.377Z,53.53
2018-04-14T09:44:31.852Z,55.28
2018-04-14T09:45:35.184Z,53.05
2018-04-14T09:46:37.665Z,58.80
2018-04-14T09:47:40.178Z,51.22
2018-04-14T09:48:42.660Z,49.70
2018-04-14T09:49:45.122Z,51.13
2018-04-14T09:50:47.653Z,53.03
2018-04-14T09:51:50.152Z,49.97
2018-04-14T09:52:53.494Z,55.85
2018-04-14T09:53:56.775Z,49.58
2018-04-14T09:54:59.280Z,47.75
2018-04-14T09:56:01.804Z,52.08
2018-04-14T09:57:05.188Z,51.58
2018-04-14T09:58:07.676Z,50.35
2018-04-14T09:59:10.152Z,47.22
2018-04-14T10:00:28.383Z,48.45
2018-04-14T10:01:30.884Z,45.83
2018-04-14T10:02:39.729Z,52.40
2018-04-14T10:03:48.037Z,46.08
2018-04-14T10:04:50.559Z,52.45
2018-04-14T10:05:53.021Z,46.17
2018-04-14T10:06:55.510Z,49.28
2018-04-14T10:07:58.081Z,41.28
2018-04-14T10:09:00.705Z,40.70
2018-04-14T10:10:03.190Z,43.55
2018-04-14T10:11:05.687Z,42.90
2018-04-14T10:12:08.161Z,46.60
2018-04-14T10:13:10.644Z,45.83
2018-04-14T10:14:13.907Z,46.55
2018-04-14T10:15:16.392Z,43.70
2018-04-14T10:16:18.924Z,46.88
2018-04-14T10:17:21.358Z,40.97
2018-04-14T10:18:23.837Z,41.55
2018-04-14T10:19:26.329Z,40.33
2018-04-14T10:20:28.834Z,38.58
2018-04-14T10:21:32.086Z,37.20
2018-04-14T10:22:35.346Z,41.47
2018-04-14T10:23:37.820Z,35.05
2018-04-14T10:24:40.357Z,43.42
2018-04-14T10:25:42.841Z,40.05
2018-04-14T10:26:45.320Z,41.08
2018-04-14T10:27:48.581Z,41.05
2018-04-14T10:28:51.855Z,45.80
2018-04-14T10:29:54.372Z,36.08
2018-04-14T10:30:57.307Z,43.60
2018-04-14T10:31:59.777Z,39.72
2018-04-14T10:33:02.319Z,39.85
2018-04-14T10:34:05.587Z,42.17
2018-04-14T10:35:08.119Z,38.08
2018-04-14T10:36:10.646Z,38.65
2018-04-14T10:37:13.222Z,36.95
2018-04-14T10:38:15.715Z,41.58
2018-04-14T10:39:18.234Z,35.55
2018-04-14T10:40:20.718Z,39.20
2018-04-14T10:41:24.007Z,40.97
2018-04-14T10:42:26.534Z,40.97
2018-04-14T10:43:29.032Z,38.95
2018-04-14T10:44:31.544Z,39.75
2018-04-14T10:45:34.823Z,38.45
2018-04-14T10:46:37.292Z,43.72
2018-04-14T10:47:39.812Z,36.50
2018-04-14T10:49:51.333Z,36.90
2018-04-14T10:50:54.620Z,37.97
2018-04-14T10:51:57.213Z,37.45
2018-04-14T10:53:01.236Z,37.38
2018-04-14T10:54:03.948Z,35.50
2018-04-14T10:55:06.548Z,34.85
2018-04-14T10:56:09.211Z,38.45
2018-04-14T10:57:12.534Z,35.95
2018-04-14T10:58:15.075Z,36.75
2018-04-14T10:59:17.565Z,38.42
2018-04-14T11:00:20.054Z,38.67
2018-04-14T11:01:22.537Z,39.45
2018-04-14T11:02:25.438Z,42.08
2018-04-14T11:03:28.799Z,38.78
2018-04-14T11:04:31.280Z,34.72
2018-04-14T11:05:33.765Z,36.72
2018-04-14T11:06:36.261Z,40.05
2018-04-14T11:07:39.525Z,35.53
2018-04-14T11:08:42.006Z,37.05
2018-04-14T11:09:44.749Z,35.45
2018-04-14T11:10:47.653Z,34.10
2018-04-14T11:11:50.471Z,33.03
2018-04-14T11:12:53.222Z,37.28
2018-04-14T11:13:55.852Z,35.28
2018-04-14T11:14:58.340Z,38.90
2018-04-14T11:16:01.112Z,38.42
2018-04-14T11:17:03.846Z,36.35
2018-04-14T11:18:06.529Z,39.20
2018-04-14T11:19:09.105Z,33.05
2018-04-14T11:20:11.670Z,36.88
2018-04-14T11:21:14.203Z,36.38
2018-04-14T11:22:16.716Z,32.33
2018-04-14T11:23:20.026Z,34.55
2018-04-14T11:24:22.635Z,35.03
2018-04-14T11:25:25.941Z,41.15
2018-04-14T11:26:28.441Z,37.45
2018-04-14T11:27:31.723Z,39.83
2018-04-14T11:28:34.340Z,34.92
2018-04-14T11:29:36.834Z,37.78
2018-04-14T11:30:40.089Z,38.20
2018-04-14T11:31:43.327Z,39.60
2018-04-14T11:32:46.560Z,36.47
2018-04-14T11:33:49.808Z,39.72
2018-04-14T11:34:53.085Z,37.88
2018-04-14T11:35:55.589Z,39.45
2018-04-14T11:36:58.841Z,37.08
2018-04-14T11:38:01.312Z,38.08
2018-04-14T11:39:03.812Z,37.35
2018-04-14T11:40:06.370Z,38.58
2018-04-14T11:41:08.859Z,40.78
2018-04-14T11:42:11.346Z,39.30
2018-04-14T11:43:14.582Z,40.20
2018-04-14T11:44:18.032Z,37.72
2018-04-14T11:45:21.404Z,37.60
2018-04-14T11:46:23.934Z,37.88
2018-04-14T11:47:26.426Z,38.08
2018-04-14T11:48:29.672Z,41.83
2018-04-14T11:49:32.129Z,36.45
2018-04-14T11:50:34.687Z,34.95
2018-04-14T11:51:37.170Z,34.70
2018-04-14T11:52:39.654Z,37.75
2018-04-14T11:53:42.139Z,36.72
2018-04-14T11:54:44.626Z,37.53
2018-04-14T11:55:47.903Z,38.60
2018-04-14T11:56:50.385Z,41.47
2018-04-14T11:57:53.632Z,38.15
2018-04-14T11:58:56.941Z,34.92
2018-04-14T11:59:59.620Z,34.88
2018-04-14T12:01:02.130Z,34.78
2018-04-14T12:02:05.408Z,38.03
2018-04-14T12:03:07.886Z,33.20
2018-04-14T12:04:10.366Z,33.63
2018-04-14T12:05:12.841Z,33.25
2018-04-14T12:06:16.111Z,31.62
2018-04-14T12:07:18.599Z,36.72
2018-04-14T12:08:21.069Z,29.98
2018-04-14T12:09:24.179Z,33.13
2018-04-14T12:10:27.536Z,26.30
2018-04-14T12:11:30.891Z,27.40
2018-04-14T12:12:33.374Z,28.92
2018-04-14T12:13:35.973Z,28.27
2018-04-14T12:14:38.480Z,26.25
2018-04-14T12:15:40.954Z,23.60
2018-04-14T12:16:43.447Z,26.77
2018-04-14T12:17:45.919Z,29.52
2018-04-14T12:18:49.201Z,31.73
2018-04-14T12:19:51.842Z,30.12
2018-04-14T12:20:54.506Z,32.83
2018-04-14T12:21:57.001Z,32.58
2018-04-14T12:22:59.541Z,29.02
2018-04-14T12:24:02.033Z,31.27
2018-04-14T12:25:04.551Z,28.77
2018-04-14T12:26:07.035Z,31.35
2018-04-14T12:27:09.525Z,32.28
2018-04-14T12:28:12.015Z,34.35
2018-04-14T12:29:14.499Z,39.78
2018-04-14T12:30:16.973Z,91.30
2018-04-14T12:31:19.531Z,36.13
2018-04-14T12:32:22.045Z,34.80
2018-04-14T12:33:24.616Z,38.00
2018-04-14T12:34:27.122Z,35.08
2018-04-14T12:35:29.610Z,29.25
2018-04-14T12:36:32.139Z,33.85
2018-04-14T12:37:34.641Z,35.50
2018-04-14T12:38:37.905Z,42.50
2018-04-14T12:39:40.407Z,36.10
2018-04-14T12:40:42.910Z,42.78
2018-04-14T12:41:45.505Z,46.17
2018-04-14T12:42:48.017Z,44.72
2018-04-14T12:43:50.495Z,46.53
2018-04-14T12:44:52.994Z,46.90
2018-04-14T12:45:55.482Z,63.20
2018-04-14T12:46:57.955Z,56.42
2018-04-14T12:48:00.525Z,54.58
2018-04-14T12:49:03.084Z,56.03
2018-04-14T12:50:05.578Z,60.35
2018-04-14T12:51:08.064Z,66.30
2018-04-14T12:52:10.724Z,64.57
2018-04-14T12:53:14.071Z,59.72
2018-04-14T12:54:16.538Z,67.30
2018-04-14T12:55:19.011Z,78.03
2018-04-14T12:56:22.384Z,62.10
2018-04-14T12:57:24.950Z,71.57
2018-04-14T12:58:27.474Z,62.17
2018-04-14T12:59:29.943Z,68.60
2018-04-14T13:00:32.447Z,60.88
2018-04-14T13:01:35.689Z,72.45
2018-04-14T13:02:38.214Z,69.28
2018-04-14T13:03:40.713Z,72.10
2018-04-14T13:04:43.305Z,75.10
2018-04-14T13:05:45.820Z,73.35
2018-04-14T13:06:48.353Z,67.10
2018-04-14T13:07:50.868Z,63.60
2018-04-14T13:08:54.114Z,63.20
2018-04-14T13:09:56.586Z,63.58
2018-04-14T13:10:59.056Z,65.12
2018-04-14T13:12:02.295Z,66.03
2018-04-14T13:13:05.614Z,62.42
2018-04-14T13:14:09.597Z,67.07
2018-04-14T13:15:12.921Z,80.72
2018-04-14T13:16:16.063Z,92.57
2018-04-14T13:17:18.781Z,70.55
2018-04-14T13:18:21.292Z,67.15
2018-04-14T13:19:24.042Z,61.58
2018-04-14T13:20:26.533Z,62.88
2018-04-14T13:21:29.008Z,48.67
2018-04-14T13:22:32.319Z,51.20
2018-04-14T13:23:34.808Z,57.10
2018-04-14T13:24:37.306Z,56.20
2018-04-14T13:25:40.590Z,62.33
2018-04-14T13:26:43.062Z,58.20
2018-04-14T13:27:46.341Z,87.93
2018-04-14T13:28:49.208Z,60.58